Time;durP1;ratioP1;P1;durP2;ratioP2;P2;SDS_P1;SDS_P2;PMS_P1;PMS_P2;Temp;Humidity;BMP_temperature;BMP_pressure;BME280_temperature;BME280_humidity;BME280_pressure;Samples;Min_cycle;Max_cycle;Signal;HPM_P1;HPM_P2
2024/04/03 00:02:27;;;;;;;12.20;6.23;;;3.60;99.90;4.60;96530.00;;;;4978209;28;20487;-69
2024/04/03 00:05:14;;;;;;;11.50;9.07;;;3.30;99.90;4.90;96532.00;;;;4969482;28;20230;-68
2024/04/03 00:08:02;;;;;;;14.17;9.10;;;3.20;99.90;4.80;96522.00;;;;4970952;28;20484;-70
2024/04/03 00:10:48;;;;;;;12.40;11.17;;;3.20;99.90;5.80;96527.00;;;;4968176;28;20443;-69
2024/04/03 00:13:38;;;;;;;16.70;9.17;;;3.30;99.90;5.90;96542.00;;;;4968485;28;20437;-69
2024/04/03 00:16:25;;;;;;;15.80;14.27;;;3.40;99.90;5.40;96521.00;;;;4972233;28;20426;-69
2024/04/03 00:19:13;;;;;;;79.83;51.63;;;3.40;99.90;5.30;96531.00;;;;4985853;28;20499;-69
2024/04/03 00:22:01;;;;;;;26.27;18.87;;;3.40;99.90;5.20;96528.00;;;;4973877;28;20442;-69
2024/04/03 00:24:47;;;;;;;56.57;45.37;;;3.30;99.90;5.80;96530.00;;;;4971044;28;20226;-69
2024/04/03 00:27:35;;;;;;;30.43;26.87;;;3.30;99.90;5.90;96539.00;;;;4985525;28;20476;-69
2024/04/03 00:30:25;;;;;;;16.33;15.13;;;3.40;99.90;5.30;96541.00;;;;4967905;28;20450;-69
2024/04/03 00:33:12;;;;;;;14.90;13.47;;;3.30;99.90;5.10;96540.00;;;;4972763;28;20448;-69
2024/04/03 00:36:01;;;;;;;6.87;3.87;;;3.20;99.90;4.40;96533.00;;;;4973022;28;20437;-69
2024/04/03 00:38:48;;;;;;;8.67;6.47;;;3.10;99.90;4.90;96536.00;;;;4971620;28;20427;-69
2024/04/03 00:41:36;;;;;;;11.17;6.37;;;3.00;99.90;5.50;96526.00;;;;4987913;28;20440;-69
2024/04/03 00:44:22;;;;;;;8.23;3.97;;;3.00;99.90;5.80;96531.00;;;;4989675;28;20464;-69
2024/04/03 00:47:12;;;;;;;7.80;3.63;;;3.10;99.90;5.70;96542.00;;;;4965341;28;20427;-69
2024/04/03 00:49:59;;;;;;;8.00;3.77;;;3.20;99.90;5.40;96538.00;;;;4974201;28;20525;-69
2024/04/03 00:52:48;;;;;;;7.63;3.40;;;3.20;99.90;5.00;96535.00;;;;4989629;28;20480;-69
2024/04/03 00:55:36;;;;;;;13.73;6.17;;;3.20;99.90;5.40;96532.00;;;;4969969;28;20616;-69
2024/04/03 00:58:24;;;;;;;7.97;4.13;;;3.10;99.90;5.30;96529.00;;;;4967057;28;20205;-69
2024/04/03 01:01:11;;;;;;;9.63;4.47;;;3.70;99.90;4.90;96539.00;;;;4973185;28;20210;-69
2024/04/03 01:04:00;;;;;;;8.57;5.67;;;3.10;99.90;4.40;96528.00;;;;4933154;28;1247161;-69
2024/04/03 01:06:47;;;;;;;9.57;4.43;;;2.90;99.90;4.30;96535.00;;;;4973935;28;20710;-69
2024/04/03 01:09:35;;;;;;;33.23;27.27;;;2.70;99.90;4.70;96540.00;;;;4977933;28;20438;-69
2024/04/03 01:12:22;;;;;;;91.00;54.00;;;2.50;99.90;4.60;96534.00;;;;4977994;28;20445;-70
2024/04/03 01:15:11;;;;;;;4.17;2.40;;;2.60;99.90;4.40;96536.00;;;;4969739;28;20538;-69
2024/04/03 01:17:58;;;;;;;2.70;1.70;;;2.50;99.90;4.70;96528.00;;;;4976288;28;20440;-69
2024/04/03 01:20:47;;;;;;;2.70;1.73;;;2.50;99.90;4.60;96529.00;;;;4976784;28;20433;-69
2024/04/03 01:23:34;;;;;;;6.70;3.83;;;2.50;99.90;4.00;96530.00;;;;4977046;28;20442;-69
2024/04/03 01:26:25;;;;;;;2.27;1.50;;;2.40;99.90;4.20;96522.00;;;;4981316;28;20496;-70
2024/04/03 01:29:12;;;;;;;3.57;2.10;;;2.30;99.90;4.70;96538.00;;;;4970828;28;20470;-69
2024/04/03 01:32:01;;;;;;;5.17;3.00;;;2.40;99.90;4.90;96536.00;;;;4976274;28;20430;-69
2024/04/03 01:34:48;;;;;;;3.90;2.40;;;2.40;99.90;4.60;96532.00;;;;4979195;28;20493;-70
2024/04/03 01:37:36;;;;;;;5.37;3.30;;;2.40;99.90;4.90;96529.00;;;;4987270;28;20441;-70
2024/04/03 01:40:23;;;;;;;3.47;2.10;;;2.50;99.90;4.20;96527.00;;;;4972510;28;20446;-69
2024/04/03 01:43:12;;;;;;;3.73;2.07;;;2.50;99.90;4.50;96521.00;;;;4971088;28;20430;-69
2024/04/03 01:46:01;;;;;;;3.87;2.03;;;;;4.10;96515.00;;;;4980965;28;20497;-68
2024/04/03 01:48:50;;;;;;;4.33;2.23;;;;;5.00;96522.00;;;;4972563;28;20554;-67
2024/04/03 01:51:37;;;;;;;5.27;2.83;;;;;5.10;96520.00;;;;4971185;28;20446;-66
2024/04/03 01:54:26;;;;;;;4.97;2.37;;;;;5.00;96518.00;;;;4974546;28;21009;-67
2024/04/03 01:57:15;;;;;;;5.10;2.63;;;;;4.80;96518.00;;;;4972514;28;20447;-66
2024/04/03 02:00:04;;;;;;;4.17;2.20;;;;;4.40;96502.00;;;;4975572;28;20491;-67
2024/04/03 02:02:52;;;;;;;3.43;1.70;;;;;4.50;96503.00;;;;4969034;28;20449;-67
2024/04/03 02:05:41;;;;;;;7.97;3.57;;;;;4.50;96506.00;;;;4970371;28;20477;-67
2024/04/03 02:08:29;;;;;;;9.27;3.83;;;;;3.60;96492.00;;;;4972047;28;20535;-67
2024/04/03 02:11:17;;;;;;;5.53;2.47;;;;;3.50;96491.00;;;;4974642;28;20435;-67
2024/04/03 02:14:06;;;;;;;7.20;2.93;;;;;3.60;96486.00;;;;4972803;28;20553;-67
2024/04/03 02:16:55;;;;;;;9.10;3.80;;;;;3.20;96475.00;;;;4972539;28;20441;-70
2024/04/03 02:19:43;;;;;;;45.30;25.00;;;1.80;99.90;2.70;96461.00;;;;4968787;28;20446;-70
2024/04/03 02:22:30;;;;;;;15.17;6.10;;;1.60;99.90;3.30;96468.00;;;;4969935;28;20472;-70
2024/04/03 02:25:18;;;;;;;76.83;53.40;;;1.60;99.90;3.80;96469.00;;;;4989270;28;21085;-70
2024/04/03 02:28:05;;;;;;;6.77;2.93;;;1.60;99.90;4.00;96472.00;;;;4975760;28;20478;-70
2024/04/03 02:31:01;;;;;;;31.63;24.40;;;1.80;99.90;4.20;96463.00;;;;4969457;28;20465;-70
2024/04/03 02:33:50;;;;;;;6.87;3.03;;;1.80;99.90;4.20;96477.00;;;;4988368;28;20446;-69
2024/04/03 02:36:37;;;;;;;59.53;42.23;;;2.00;99.90;4.20;96472.00;;;;4987082;28;20963;-70
2024/04/03 02:39:25;;;;;;;68.47;46.50;;;2.00;99.90;4.30;96484.00;;;;4985308;28;20821;-70
2024/04/03 02:42:12;;;;;;;7.13;3.70;;;2.10;99.90;3.50;96464.00;;;;4972217;28;20457;-70
2024/04/03 02:45:00;;;;;;;27.10;22.60;;;2.00;99.90;3.40;96469.00;;;;4970771;28;20468;-69
2024/04/03 02:47:47;;;;;;;19.43;17.60;;;1.80;99.90;3.80;96471.00;;;;4982087;28;20492;-71
2024/04/03 02:50:36;;;;;;;78.63;62.40;;;1.80;99.90;4.10;96472.00;;;;4970502;28;20439;-70
2024/04/03 02:53:23;;;;;;;3.27;1.70;;;1.90;99.90;4.00;96474.00;;;;4983925;28;21000;-70
2024/04/03 02:56:11;;;;;;;5.50;2.83;;;1.90;99.90;3.90;96477.00;;;;4973437;28;20970;-70
2024/04/03 02:58:58;;;;;;;8.90;4.83;;;1.90;99.90;3.60;96464.00;;;;4985634;28;20427;-70
2024/04/03 03:01:46;;;;;;;16.40;10.33;;;1.80;99.90;2.50;96459.00;;;;4982874;28;20810;-68
2024/04/03 03:04:41;;;;;;;13.80;6.53;;;1.50;99.90;2.70;96447.00;;;;4987509;28;20478;-68
2024/04/03 03:07:30;;;;;;;6.97;3.07;;;1.40;99.90;2.60;96455.00;;;;4971530;28;20443;-67
2024/04/03 03:10:17;;;;;;;7.23;3.37;;;1.30;99.90;3.10;96457.00;;;;4987851;28;20847;-66
2024/04/03 03:13:05;;;;;;;5.87;3.23;;;1.30;99.90;2.90;96455.00;;;;4970699;28;20438;-67
2024/04/03 03:15:52;;;;;;;8.10;4.17;;;1.30;99.90;3.00;96446.00;;;;4974187;28;20544;-67
2024/04/03 03:18:40;;;;;;;13.87;6.10;;;1.30;99.90;3.60;96453.00;;;;4974498;28;20831;-67
2024/04/03 03:21:27;;;;;;;37.70;29.23;;;1.40;99.90;2.60;96458.00;;;;4967112;28;20451;-70
2024/04/03 03:24:19;;;;;;;4.00;2.30;;;1.30;99.90;2.60;96459.00;;;;4972883;28;20462;-70
2024/04/03 03:27:06;;;;;;;5.07;3.17;;;1.20;99.90;3.00;96452.00;;;;4971962;28;20517;-70
2024/04/03 03:29:54;;;;;;;3.90;2.30;;;1.20;99.90;3.00;96449.00;;;;4985211;28;20477;-69
2024/04/03 03:32:41;;;;;;;8.93;4.70;;;1.20;99.90;3.10;96450.00;;;;4985881;28;20434;-70
2024/04/03 03:35:29;;;;;;;;;;;1.20;99.90;3.20;96445.00;;;;4973387;28;20472;-69
2024/04/03 03:38:16;;;;;;;;;;;1.20;99.90;3.20;96443.00;;;;4975448;28;19968;-69
2024/04/03 03:41:06;;;;;;;;;;;1.30;99.90;3.10;96448.00;;;;4974935;28;20385;-69
2024/04/03 03:43:54;;;;;;;;;;;1.30;99.90;3.50;96452.00;;;;4975551;28;20039;-70
2024/04/03 03:46:41;;;;;;;30.00;18.60;;;1.40;99.90;3.00;96454.00;;;;4967306;28;19926;-70
2024/04/03 03:52:40;;;;;;;9.27;4.07;;;1.50;99.90;3.00;96447.00;;;;4971672;28;20446;-70
2024/04/03 03:55:29;;;;;;;6.63;2.93;;;1.30;99.90;3.00;96449.00;;;;4986627;28;20828;-69
2024/04/03 03:58:18;;;;;;;6.13;2.67;;;1.20;99.90;2.40;96448.00;;;;4973532;28;20446;-71
2024/04/03 04:01:07;;;;;;;6.27;2.63;;;1.20;99.90;2.70;96435.00;;;;4985288;28;20434;-69
2024/04/03 04:03:55;;;;;;;5.53;2.37;;;1.60;99.90;3.00;96452.00;;;;4967233;28;20848;-70
2024/04/03 04:06:43;;;;;;;34.93;18.73;;;1.00;99.90;3.00;96444.00;;;;4984437;28;20433;-69
2024/04/03 04:09:30;;;;;;;7.13;3.43;;;1.00;99.90;2.70;96444.00;;;;4981036;28;20474;-70
2024/04/03 04:12:18;;;;;;;2.17;1.40;;;1.10;99.90;2.70;96445.00;;;;4968266;28;20521;-69
2024/04/03 04:15:07;;;;;;;3.80;2.30;;;1.10;99.90;3.20;96445.00;;;;4965979;28;20455;-70
2024/04/03 04:17:55;;;;;;;3.23;2.03;;;1.10;99.90;3.40;96443.00;;;;4972196;28;20440;-69
2024/04/03 04:20:42;;;;;;;3.07;2.13;;;1.30;99.90;2.50;96438.00;;;;4970405;28;20434;-69
2024/04/03 04:23:30;;;;;;;2.07;1.50;;;1.20;99.90;2.30;96455.00;;;;4982995;28;20434;-69
2024/04/03 04:26:18;;;;;;;3.47;2.00;;;1.10;99.90;2.90;96464.00;;;;4978603;28;20443;-69
2024/04/03 04:29:07;;;;;;;4.40;2.53;;;1.10;99.90;3.50;96460.00;;;;4973001;28;20470;-69
2024/04/03 04:32:00;;;;;;;3.93;2.07;;;1.20;99.90;2.80;96455.00;;;;4972557;28;20442;-68
2024/04/03 04:34:47;;;;;;;6.27;4.07;;;1.30;99.90;3.10;96445.00;;;;4985169;28;20450;-70
2024/04/03 04:37:38;;;;;;;5.97;3.40;;;1.20;99.90;3.00;96439.00;;;;4971462;28;20442;-70
2024/04/03 04:40:27;;;;;;;3.33;2.00;;;1.20;99.90;3.10;96451.00;;;;4978214;28;20430;-69
2024/04/03 04:43:17;;;;;;;2.70;1.83;;;1.30;99.90;3.90;96451.00;;;;4977486;28;20442;-69
2024/04/03 04:46:05;;;;;;;4.10;2.37;;;1.40;99.90;3.90;96449.00;;;;4969565;28;20439;-69
2024/04/03 04:48:55;;;;;;;4.50;2.53;;;1.60;99.90;3.20;96440.00;;;;4972496;28;20481;-69
2024/04/03 04:51:43;;;;;;;5.17;3.00;;;1.50;99.90;3.10;96455.00;;;;4969045;28;21048;-70
2024/04/03 04:54:30;;;;;;;5.20;2.83;;;1.50;99.90;3.30;96454.00;;;;4975626;28;20454;-69
2024/04/03 04:57:19;;;;;;;3.50;2.23;;;1.40;99.90;2.50;96455.00;;;;4969178;28;20449;-70
2024/04/03 05:00:08;;;;;;;4.07;2.33;;;1.30;99.90;2.60;96447.00;;;;4969291;28;21010;-70
2024/04/03 05:02:56;;;;;;;4.13;2.23;;;1.20;99.90;2.70;96445.00;;;;4969391;28;20442;-69
2024/04/03 05:05:44;;;;;;;4.93;2.77;;;1.20;99.90;3.20;96453.00;;;;4972110;28;20488;-69
2024/04/03 05:08:33;;;;;;;6.77;3.40;;;1.30;99.90;3.80;96467.00;;;;4977665;28;20477;-69
2024/04/03 05:11:20;;;;;;;4.13;2.10;;;1.40;99.90;4.00;96454.00;;;;4983905;28;20454;-69
2024/04/03 05:14:08;;;;;;;4.53;2.40;;;1.60;99.90;4.30;96466.00;;;;4973337;28;20464;-69
2024/04/03 05:16:55;;;;;;;8.50;3.93;;;1.70;99.90;4.40;96468.00;;;;4970019;28;20441;-69
2024/04/03 05:19:43;;;;;;;12.90;5.27;;;;;4.50;96466.00;;;;4985396;28;20845;-67
2024/04/03 05:22:31;;;;;;;6.33;2.70;;;;;4.60;96463.00;;;;4973308;28;20465;-67
2024/04/03 05:25:20;;;;;;;24.30;12.27;;;;;4.30;96447.00;;;;4977046;28;20474;-67
2024/04/03 05:28:07;;;;;;;27.97;21.20;;;;;3.50;96444.00;;;;4969804;28;20449;-66
2024/04/03 05:30:55;;;;;;;16.43;12.27;;;;;3.40;96455.00;;;;4972051;28;20528;-67
2024/04/03 05:33:43;;;;;;;12.97;5.43;;;;;3.80;96454.00;;;;4974649;28;20426;-68
2024/04/03 05:36:31;;;;;;;5.23;2.27;;;;;3.90;96449.00;;;;4974256;28;20446;-66
2024/04/03 05:39:19;;;;;;;14.70;9.43;;;;;3.90;96456.00;;;;4975381;28;20443;-73
2024/04/03 05:42:08;;;;;;;10.63;4.53;;;;;4.10;96461.00;;;;4969775;28;20450;-73
2024/04/03 05:44:55;;;;;;;8.43;4.00;;;;;4.70;96468.00;;;;4971426;28;20725;-70
2024/04/03 05:47:43;;;;;;;8.63;3.90;;;;;4.40;96471.00;;;;4974746;28;20444;-71
2024/04/03 05:50:30;;;;;;;4.27;2.07;;;;;4.90;96470.00;;;;4972312;28;20490;-72
2024/04/03 05:53:18;;;;;;;5.80;2.60;;;;;4.60;96469.00;;;;4966530;28;20450;-71
2024/04/03 05:56:07;;;;;;;7.40;3.37;;;;;4.80;96473.00;;;;4973779;28;20896;-73
2024/04/03 05:58:56;;;;;;;63.43;47.13;;;;;4.70;96479.00;;;;4971529;28;20529;-71
2024/04/03 06:01:44;;;;;;;11.57;4.83;;;;;4.80;96472.00;;;;4975584;28;21126;-70
2024/04/03 06:04:32;;;;;;;9.47;3.90;;;;;5.40;96470.00;;;;4970421;28;20468;-70
2024/04/03 06:07:19;;;;;;;6.07;2.57;;;;;4.90;96474.00;;;;4972552;28;20500;-73
2024/04/03 06:10:08;;;;;;;5.63;2.53;;;;;5.40;96470.00;;;;4972528;28;20481;-73
2024/04/03 06:12:57;;;;;;;5.20;2.37;;;;;5.70;96478.00;;;;4975084;28;20446;-71
2024/04/03 06:15:45;;;;;;;11.60;4.77;;;;;5.50;96480.00;;;;4973789;28;20466;-71
2024/04/03 06:18:32;;;;;;;6.83;2.93;;;;;5.30;96477.00;;;;4970464;28;20431;-73
2024/04/03 06:21:21;;;;;;;6.47;2.77;;;;;5.80;96471.00;;;;4975079;28;20449;-69
2024/04/03 06:24:08;;;;;;;7.67;3.13;;;;;6.30;96470.00;;;;4972437;28;20509;-70
2024/04/03 06:26:56;;;;;;;10.27;4.13;;;;;6.60;96476.00;;;;4973684;28;20203;-70
2024/04/03 06:29:46;;;;;;;12.10;4.87;;;;;7.10;96470.00;;;;4973265;28;20478;-71
2024/04/03 06:32:34;;;;;;;10.43;4.23;;;;;6.70;96462.00;;;;4972554;28;20598;-70
2024/04/03 06:35:24;;;;;;;7.07;2.90;;;;;6.80;96461.00;;;;4971723;28;20731;-70
2024/04/03 06:38:13;;;;;;;6.90;2.93;;;;;6.80;96456.00;;;;4967947;28;20243;-70
2024/04/03 06:41:00;;;;;;;7.90;3.27;;;;;7.40;96461.00;;;;4972270;28;20210;-69
2024/04/03 06:43:48;;;;;;;8.70;3.53;;;;;7.40;96468.00;;;;4973611;28;20211;-71
2024/04/03 06:46:37;;;;;;;14.57;5.67;;;;;7.80;96471.00;;;;4971514;28;20893;-70
2024/04/03 06:49:27;;;;;;;5.70;3.03;;;;;7.70;96459.00;;;;4975116;28;20600;-69
2024/04/03 06:52:14;;;;;;;34.33;28.47;;;;;8.30;96454.00;;;;4974363;28;20214;-69
2024/04/03 06:55:03;;;;;;;4.67;2.20;;;;;8.50;96456.00;;;;4971261;28;20256;-70
2024/04/03 06:57:50;;;;;;;4.50;2.30;;;;;8.80;96449.00;;;;4975659;28;20203;-70
2024/04/03 07:00:38;;;;;;;7.30;3.70;;;;;8.90;96456.00;;;;4971152;28;20614;-70
2024/04/03 07:03:29;;;;;;;3.53;2.00;;;;;9.40;96464.00;;;;4973940;28;20670;-70
2024/04/03 07:06:16;;;;;;;3.33;1.97;;;;;9.80;96466.00;;;;4966600;28;20213;-71
2024/04/03 07:09:05;;;;;;;4.00;2.33;;;;;9.80;96465.00;;;;4972117;28;20218;-70
2024/04/03 07:11:53;;;;;;;4.67;2.50;;;;;10.70;96470.00;;;;4972916;28;20630;-70
2024/04/03 07:14:40;;;;;;;7.83;3.93;;;;;11.20;96467.00;;;;4972221;28;20233;-71
2024/04/03 07:17:28;;;;;;;3.60;1.90;;;;;10.80;96466.00;;;;4968425;28;20696;-70
2024/04/03 07:20:17;;;;;;;4.37;2.27;;;;;11.30;96473.00;;;;4972841;28;20207;-70
2024/04/03 07:23:05;;;;;;;4.43;2.17;;;;;11.10;96456.00;;;;4971214;28;20206;-70
2024/04/03 07:25:53;;;;;;;3.33;1.80;;;;;11.90;96456.00;;;;4972840;28;20234;-70
2024/04/03 07:28:42;;;;;;;5.90;2.97;;;;;12.00;96461.00;;;;4971696;28;20218;-70
2024/04/03 07:31:29;;;;;;;3.83;2.00;;;;;12.20;96466.00;;;;4968839;28;20214;-70
2024/04/03 07:34:17;;;;;;;4.13;2.20;;;;;12.40;96465.00;;;;4969435;28;20237;-70
2024/04/03 07:37:07;;;;;;;3.83;2.13;;;;;11.90;96471.00;;;;4971093;28;20885;-70
2024/04/03 07:39:54;;;;;;;2.80;1.57;;;;;12.20;96473.00;;;;4972748;28;20207;-71
2024/04/03 07:42:44;;;;;;;7.83;3.80;;;;;12.40;96472.00;;;;4971372;28;20671;-71
2024/04/03 07:45:31;;;;;;;3.60;1.97;;;;;12.60;96462.00;;;;4971167;28;20711;-70
2024/04/03 07:48:20;;;;;;;4.50;2.27;;;;;12.70;96456.00;;;;4966977;28;20669;-70
2024/04/03 07:51:07;;;;;;;3.93;2.03;;;;;13.30;96453.00;;;;4973801;28;20218;-71
2024/04/03 07:53:56;;;;;;;2.87;1.43;;;;;14.00;96448.00;;;;4971140;28;20234;-71
2024/04/03 07:56:43;;;;;;;5.70;2.87;;;;;14.10;96449.00;;;;4971050;28;20294;-70
2024/04/03 07:59:33;;;;;;;4.23;2.23;;;;;14.60;96444.00;;;;4968383;28;20290;-72
2024/04/03 08:02:20;;;;;;;3.53;1.80;;;;;14.80;96445.00;;;;4973343;28;20214;-70
2024/04/03 08:05:09;;;;;;;4.03;2.07;;;;;14.90;96446.00;;;;4972606;28;20238;-70
2024/04/03 08:07:56;;;;;;;5.03;2.47;;;;;15.00;96447.00;;;;4972470;28;20210;-72
2024/04/03 08:10:46;;;;;;;5.37;2.63;;;;;14.60;96437.00;;;;4971242;28;20234;-70
2024/04/03 08:13:33;;;;;;;3.87;2.03;;;;;14.70;96437.00;;;;4968448;28;20210;-71
2024/04/03 08:16:21;;;;;;;4.67;2.33;;;;;15.30;96438.00;;;;4977837;28;20220;-70
2024/04/03 08:19:09;;;;;;;2.67;1.43;;;;;15.40;96438.00;;;;4970867;28;20611;-71
2024/04/03 08:21:58;;;;;;;6.40;3.03;;;;;16.10;96423.00;;;;4973706;28;20253;-71
2024/04/03 08:24:46;;;;;;;8.63;4.07;;;;;16.30;96424.00;;;;4968216;28;20231;-71
2024/04/03 08:27:35;;;;;;;5.53;2.43;;;;;16.10;96412.00;;;;4967809;28;20216;-70
2024/04/03 08:30:23;;;;;;;5.20;2.40;;;;;16.50;96422.00;;;;4969375;28;20222;-70
2024/04/03 08:33:10;;;;;;;6.37;2.80;;;;;16.50;96423.00;;;;4972088;28;20252;-71
2024/04/03 08:36:02;;;;;;;5.53;2.43;;;;;16.70;96423.00;;;;4972282;28;20204;-70
2024/04/03 08:38:50;;;;;;;9.30;4.10;;;;;17.00;96418.00;;;;4972360;28;20218;-70
2024/04/03 08:41:38;;;;;;;9.37;4.00;;;;;17.20;96430.00;;;;4971037;28;20257;-70
2024/04/03 08:44:28;;;;;;;4.93;2.10;;;;;17.20;96422.00;;;;4973888;28;20707;-71
2024/04/03 08:47:18;;;;;;;5.07;2.40;;;;;17.20;96418.00;;;;4972653;28;20692;-71
2024/04/03 08:50:05;;;;;;;4.97;2.20;;;;;17.50;96413.00;;;;4969147;28;20238;-71
2024/04/03 08:52:54;;;;;;;4.70;2.30;;;;;17.80;96407.00;;;;4970755;28;20306;-70
2024/04/03 08:55:42;;;;;;;5.90;2.73;;;;;17.70;96407.00;;;;4972104;28;20234;-71
2024/04/03 08:58:30;;;;;;;2.30;1.33;;;;;17.90;96401.00;;;;4976271;28;20199;-70
2024/04/03 09:01:19;;;;;;;6.13;2.80;;;;;18.00;96395.00;;;;4975414;28;20698;-71
2024/04/03 09:04:07;;;;;;;5.10;2.47;;;;;18.30;96397.00;;;;4973989;28;20241;-71
2024/04/03 09:06:55;;;;;;;4.10;2.00;;;;;18.30;96397.00;;;;4977193;28;20218;-71
2024/04/03 09:09:43;;;;;;;9.97;4.63;;;;;18.20;96396.00;;;;4975720;28;20596;-72
2024/04/03 09:12:31;;;;;;;4.87;2.37;;;;;18.10;96394.00;;;;4973645;28;20218;-71
2024/04/03 09:15:19;;;;;;;3.57;1.90;;;;;18.50;96389.00;;;;4978032;28;20227;-70
2024/04/03 09:18:09;;;;;;;3.90;2.10;;;;;18.60;96383.00;;;;4976054;28;20206;-71
2024/04/03 09:20:57;;;;;;;3.00;1.60;;;;;18.50;96380.00;;;;4974816;28;20201;-71
2024/04/03 09:23:45;;;;;;;5.73;2.90;;;;;18.70;96378.00;;;;4972140;28;20214;-71
2024/04/03 09:26:34;;;;;;;2.03;1.20;;;;;19.00;96382.00;;;;4978560;28;20696;-71
2024/04/03 09:29:22;;;;;;;6.00;2.93;;;;;19.00;96375.00;;;;4975961;28;20257;-71
2024/04/03 09:32:09;;;;;;;6.00;2.93;;;;;19.20;96375.00;;;;4975105;28;20205;-70
2024/04/03 09:34:59;;;;;;;4.40;2.10;;;;;19.30;96375.00;;;;4979608;28;20230;-70
2024/04/03 09:37:46;;;;;;;7.60;3.77;;;;;19.50;96381.00;;;;4974910;28;20240;-71
2024/04/03 09:40:35;;;;;;;4.97;2.37;;;;;19.30;96369.00;;;;4972480;28;20202;-70
2024/04/03 09:43:26;;;;;;;3.47;1.80;;;;;19.30;96373.00;;;;4974391;28;20211;-70
2024/04/03 09:46:15;;;;;;;4.07;1.97;;;;;18.90;96369.00;;;;4970692;28;20627;-70
2024/04/03 09:49:05;;;;;;;4.17;2.10;;;;;19.30;96360.00;;;;4974517;28;20274;-71
2024/04/03 09:51:56;;;;;;;6.40;2.87;;;;;19.80;96356.00;;;;4972948;28;20211;-70
2024/04/03 09:54:43;;;;;;;9.73;4.40;;;;;20.40;96360.00;;;;4974009;28;20223;-70
2024/04/03 09:57:32;;;;;;;4.50;2.00;;;;;20.40;96361.00;;;;4973400;28;20329;-70
2024/04/03 10:00:19;;;;;;;5.37;2.43;;;;;20.60;96356.00;;;;4975747;28;20750;-70
2024/04/03 10:03:20;;;;;;;5.53;2.43;;;;;20.90;96345.00;;;;4974988;28;20590;-71
2024/04/03 10:06:13;;;;;;;3.33;1.63;;;;;21.10;96338.00;;;;4971710;28;20221;-70
2024/04/03 10:09:14;;;;;;;7.23;3.03;;;;;21.00;96334.00;;;;4976091;28;20692;-71
2024/04/03 10:12:06;;;;;;;7.67;3.37;;;;;21.00;96332.00;;;;4970489;28;20218;-71
2024/04/03 10:14:57;;;;;;;4.60;2.07;;;;;20.70;96327.00;;;;4972566;28;20747;-71
2024/04/03 10:17:48;;;;;;;8.87;4.13;;;;;19.80;96319.00;;;;4971525;28;20212;-70
2024/04/03 10:20:36;;;;;;;5.10;2.27;;;;;20.70;96328.00;;;;4972580;28;20333;-71
2024/04/03 10:23:26;;;;;;;5.30;2.37;;;;;20.80;96327.00;;;;4973312;28;20322;-71
2024/04/03 10:26:15;;;;;;;4.90;2.30;;;;;20.90;96327.00;;;;4975772;28;20210;-70
2024/04/03 10:29:04;;;;;;;5.63;2.57;;;;;21.10;96323.00;;;;4971552;28;20578;-70
2024/04/03 10:31:51;;;;;;;8.90;3.90;;;;;21.30;96316.00;;;;4970955;28;20211;-70
2024/04/03 10:34:39;;;;;;;7.03;3.03;;;;;20.50;96320.00;;;;4974182;28;20238;-70
2024/04/03 10:37:27;;;;;;;2.50;1.23;;;;;19.80;96316.00;;;;4975644;28;20346;-70
2024/04/03 10:40:16;;;;;;;5.83;2.60;;;;;19.60;96304.00;;;;4976638;28;20289;-70
2024/04/03 10:43:04;;;;;;;1.33;0.80;;;;;20.70;96313.00;;;;4972496;28;20238;-70
2024/04/03 10:45:53;;;;;;;8.27;3.73;;;;;20.90;96303.00;;;;4968663;28;20245;-70
2024/04/03 10:48:41;;;;;;;8.40;3.83;;;;;21.00;96307.00;;;;4973584;28;20657;-70
2024/04/03 10:51:30;;;;;;;7.10;3.10;;;;;21.10;96304.00;;;;4971815;28;20284;-70
2024/04/03 10:54:18;;;;;;;5.83;2.60;;;;;21.30;96310.00;;;;4973361;28;20286;-70
2024/04/03 10:57:07;;;;;;;10.20;4.23;;;;;19.70;96306.00;;;;4968312;28;20290;-69
2024/04/03 10:59:57;;;;;;;2.53;1.30;;;;;19.70;96301.00;;;;4967784;28;20339;-69
2024/04/03 11:02:49;;;;;;;9.27;4.03;;;;;19.30;96299.00;;;;4964529;28;20218;-69
2024/04/03 11:05:37;;;;;;;3.37;1.60;;;;;18.50;96297.00;;;;4967205;28;20281;-71
2024/04/03 11:08:26;;;;;;;2.30;1.30;;;;;18.50;96295.00;;;;4975025;28;20218;-69
2024/04/03 11:11:15;;;;;;;7.43;3.13;;;;;18.00;96277.00;;;;4973292;28;20244;-72
2024/04/03 11:14:02;;;;;;;4.77;2.27;;;;;17.80;96282.00;;;;4965057;28;20588;-69
2024/04/03 11:16:53;;;;;;;6.43;2.77;;;;;17.50;96282.00;;;;4974319;28;20210;-68
2024/04/03 11:19:42;;;;;;;14.20;5.50;;;;;17.90;96296.00;;;;4970037;28;20205;-69
2024/04/03 11:22:30;;;;;;;7.97;3.43;;;;;18.90;96292.00;;;;4971790;28;20222;-71
2024/04/03 11:25:18;;;;;;;5.80;2.70;;;;;17.70;96291.00;;;;4974918;28;20230;-70
2024/04/03 11:28:06;;;;;;;6.70;2.97;;;;;17.50;96282.00;;;;4965201;28;20759;-66
2024/04/03 11:30:53;;;;;;;5.57;2.60;;;;;17.70;96285.00;;;;4984436;28;20227;-70
2024/04/03 11:33:43;;;;;;;9.33;3.97;;;;;16.80;96294.00;;;;4972236;28;20692;-65
2024/04/03 11:36:30;;;;;;;7.50;3.20;;;;;17.10;96293.00;;;;4968138;28;20211;-68
2024/04/03 11:39:19;;;;;;;7.13;3.10;;;;;17.00;96292.00;;;;4969794;28;20204;-67
2024/04/03 11:42:07;;;;;;;11.27;4.57;;;;;16.70;96283.00;;;;4967433;28;20209;-71
2024/04/03 11:44:55;;;;;;;6.27;2.77;;;;;17.90;96299.00;;;;4967600;28;20231;-70
2024/04/03 11:47:42;;;;;;;9.87;4.03;;;;;19.00;96293.00;;;;4968147;28;20210;-69
2024/04/03 11:50:32;;;;;;;6.43;2.80;;;;;19.50;96292.00;;;;4972688;28;20226;-69
2024/04/03 11:53:19;;;;;;;6.23;2.77;;;;;19.80;96300.00;;;;4970635;28;20211;-70
2024/04/03 11:56:08;;;;;;;6.33;2.90;;;;;20.20;96291.00;;;;4975852;28;20198;-70
2024/04/03 11:58:55;;;;;;;9.30;4.00;;;;;19.70;96289.00;;;;4973802;28;20234;-69
2024/04/03 12:01:43;;;;;;;6.97;3.13;;;;;19.30;96274.00;;;;4972229;28;20207;-69
2024/04/03 12:04:31;;;;;;;5.90;2.63;;;;;20.10;96282.00;;;;4983947;28;20237;-69
2024/04/03 12:07:22;;;;;;;7.67;3.40;;;;;19.80;96280.00;;;;4967507;28;20207;-68
2024/04/03 12:10:10;;;;;;;12.03;5.13;;;;;19.20;96280.00;;;;4953204;28;20234;-68
2024/04/03 12:12:58;;;;;;;14.70;6.10;;;;;19.50;96285.00;;;;4951651;28;20278;-69
2024/04/03 12:15:47;;;;;;;15.13;6.20;;;;;20.00;96286.00;;;;4956315;28;20309;-69
2024/04/03 12:18:48;;;;;;;9.00;3.73;;;;;19.80;96284.00;;;;4960941;28;21179;-68
2024/04/03 12:21:36;;;;;;;9.93;4.30;;;;;19.80;96279.00;;;;4968173;28;20207;-68
2024/04/03 12:24:25;;;;;;;7.97;3.30;;;;;20.40;96285.00;;;;4960896;28;20229;-68
2024/04/03 12:27:13;;;;;;;13.77;5.60;;;;;19.40;96268.00;;;;4961100;28;21088;-68
2024/04/03 12:30:00;;;;;;;8.00;3.47;;;;;19.50;96266.00;;;;4960797;28;20234;-69
2024/04/03 12:32:48;;;;;;;10.33;4.37;;;;;19.50;96267.00;;;;4963894;28;21190;-69
2024/04/03 12:35:36;;;;;;;8.10;3.63;;;;;18.10;96259.00;;;;4965992;28;20235;-68
2024/04/03 12:38:24;;;;;;;9.67;4.00;;;;;18.40;96257.00;;;;4969174;28;20214;-68
2024/04/03 12:41:13;;;;;;;8.37;3.50;;;;;17.50;96251.00;;;;4967025;28;20745;-70
2024/04/03 12:44:02;;;;;;;6.67;2.87;;;;;17.80;96258.00;;;;4965669;28;20230;-71
2024/04/03 12:46:50;;;;;;;15.33;6.37;;;;;17.80;96265.00;;;;4965717;28;20369;-69
2024/04/03 12:49:40;;;;;;;13.63;5.60;;;;;17.40;96253.00;;;;4958444;28;20211;-71
2024/04/03 12:52:28;;;;;;;7.10;3.03;;;;;17.90;96256.00;;;;4962296;28;20345;-69
2024/04/03 12:55:16;;;;;;;10.17;4.10;;;;;18.40;96260.00;;;;4966532;28;20219;-66
2024/04/03 12:58:05;;;;;;;5.63;2.50;;;;;19.00;96264.00;;;;4974585;28;20254;-67
2024/04/03 13:00:53;;;;;;;10.47;4.53;;;;;19.70;96260.00;;;;4975735;28;20217;-67
2024/04/03 13:03:41;;;;;;;12.23;5.20;;;;;20.10;96253.00;;;;4977254;28;20680;-71
2024/04/03 13:06:36;;;;;;;5.23;2.33;;;;;19.70;96261.00;;;;4967044;28;20225;-70
2024/04/03 13:09:24;;;;;;;9.70;4.03;;;;;19.80;96254.00;;;;4971692;28;20221;-67
2024/04/03 13:12:11;;;;;;;8.27;3.63;;;;;18.40;96246.00;;;;4975193;28;20289;-68
2024/04/03 13:15:01;;;;;;;7.87;3.40;;;;;18.90;96251.00;;;;4970576;28;20234;-69
2024/04/03 13:17:48;;;;;;;12.23;5.13;;;;;18.00;96235.00;;;;4980616;28;20225;-70
2024/04/03 13:20:36;;;;;;;7.87;3.53;;;;;19.40;96240.00;;;;4970849;28;20215;-71
2024/04/03 13:23:24;;;;;;;7.03;3.13;;;;;18.60;96232.00;;;;4972864;28;20229;-68
2024/04/03 13:26:12;;;;;;;5.97;2.70;;;;;18.60;96229.00;;;;4975321;28;20217;-73
2024/04/03 13:29:00;;;;;;;8.73;3.63;;;;;18.30;96215.00;;;;4971859;28;20681;-68
2024/04/03 13:31:49;;;;;;;14.47;5.83;;;;;18.20;96217.00;;;;4971319;28;20230;-66
2024/04/03 13:34:36;;;;;;;6.80;3.07;;;;;17.80;96209.00;;;;4986283;28;20230;-69
2024/04/03 13:37:25;;;;;;;5.47;2.63;;;;;18.80;96229.00;;;;4974331;28;20218;-72